• Join FlightAware (Why Join?)
  • Login
  • US Flag 
Rudolph Flight #1: Arrived! 
11:39PM EST


 

Airport Tracker/Info


-or-


 

Live Flight TrackerFlight Track Log ✈ N44CG ✈ 06-Oct-2013 ✈ KAIT - KBZN

Flight Track Log - Related Links

Times and Time Zones

All times are in EDT time to prevent confusion due to time zone crossing. See the N44CG flight status page for this flight to view local times or setup timezone preferences in your user account.

Time Position Orientation Groundspeed Altitude Reporting Facility
EDT Latitude Longitude Course Direction KTS MPH feet Rate Location/Type
01:48PM 46.5572 -93.7325 275° West 108 124 2,400  Level Minneapolis Center
01:49PM 46.5594 -94.0298 274° West  Level Estimated
01:49PM 46.5531 -93.7867 264° West 115 132 3,300  Level Minneapolis Center
01:50PM 46.5630 -94.0885 275° West  Level FlightAware Approximate
01:50PM 46.5558 -93.8347 275° West 115 132 4,000  Level Minneapolis Center
01:51PM 46.5665 -94.1472 275° West  Level FlightAware Approximate
01:51PM 46.5600 -93.8808 278° West 115 132 4,700  Level Minneapolis Center
01:52PM 46.5701 -94.2060 275° West  Level FlightAware Approximate
01:53PM 46.5736 -94.2647 275° West  Level FlightAware Approximate
01:53PM 46.5631 -93.9283 275° West 116 133 5,500  Level Minneapolis Center
01:54PM 46.5770 -94.3234 275° West  Level FlightAware Approximate
01:54PM 46.5658 -93.9753 275° West 117 135 6,100  Level Minneapolis Center
01:55PM 46.5683 -94.0242 274° West 118 136 6,800 720 Climbing Minneapolis Center
01:56PM 46.5714 -94.0844 274° West 121 139 7,600 540 Climbing Minneapolis Center
01:57PM 46.5744 -94.1367 275° West 125 144 8,000 180 Climbing Minneapolis Center
01:58PM 46.5769 -94.1958 274° West 133 153 8,000  Level Minneapolis Center
01:59PM 46.5800 -94.2608 274° West 145 167 8,000  Level Minneapolis Center
02:00PM 46.5844 -94.3236 276° West 152 175 8,000  Level Minneapolis Center
02:01PM 46.5878 -94.3867 274° West 155 178 8,000  Level Minneapolis Center
02:02PM 46.5914 -94.4519 275° West 158 182 8,000  Level Minneapolis Center
02:03PM 46.5953 -94.5294 274° West 160 184 8,000  Level Minneapolis Center
02:04PM 46.5994 -94.5950 275° West 161 185 8,000  Level Minneapolis Center
02:05PM 46.6028 -94.6608 274° West 162 186 8,000  Level Minneapolis Center
02:06PM 46.6061 -94.7244 274° West 161 185 8,000  Level Minneapolis Center
02:07PM 46.6097 -94.7900 275° West 161 185 8,000  Level Minneapolis Center
02:08PM 46.6128 -94.8522 274° West 159 183 8,000  Level Minneapolis Center
02:09PM 46.6161 -94.9239 274° West 154 177 8,000  Level Minneapolis Center
02:10PM 46.6189 -94.9844 274° West 152 175 8,000  Level Minneapolis Center
02:11PM 46.6217 -95.0453 274° West 151 174 8,000  Level Minneapolis Center
02:12PM 46.6256 -95.1064 275° West 151 174 8,000  Level Minneapolis Center
02:13PM 46.6283 -95.1686 274° West 153 176 8,000  Level Minneapolis Center
02:14PM 46.6306 -95.2314 273° West 154 177 8,000  Level Minneapolis Center
02:15PM 46.6342 -95.2931 275° West 154 177 8,000 -60 Level Minneapolis Center
02:16PM 46.6378 -95.3656 274° West 152 175 7,900 -60 Descending Minneapolis Center
02:17PM 46.6408 -95.4256 274° West 151 174 7,900  Level Minneapolis Center
02:18PM 46.6425 -95.4850 272° West 146 168 7,900  Level Minneapolis Center
02:19PM 46.6475 -95.5519 276° West 152 175 7,900  Level Minneapolis Center
02:20PM 46.6494 -95.6156 273° West 153 176 7,900  Level Minneapolis Center
02:21PM 46.6528 -95.6778 274° West 149 171 7,900  Level Minneapolis Center
02:22PM 46.6544 -95.7411 272° West 150 173 7,900  Level Minneapolis Center
02:23PM 46.6586 -95.8031 276° West 148 170 7,900  Level Minneapolis Center
02:25PM 46.6603 -95.8622 272° West 151 174 8,000  Climbing Minneapolis Center
02:26PM 46.6628 -95.9258 273° West 150 173 8,000  Level Minneapolis Center
02:27PM 46.6653 -95.9878 273° West 147 169 8,000 -60 Level Minneapolis Center
02:28PM 46.6683 -96.0483 274° West 145 167 7,900 -60 Descending Minneapolis Center
02:29PM 46.6708 -96.1106 273° West 145 167 7,900  Level Minneapolis Center
02:30PM 46.6733 -96.1700 274° West 143 165 7,900  Level Minneapolis Center
02:31PM 46.6753 -96.2258 273° West 142 163 7,900  Level Minneapolis Center
02:32PM 46.6778 -96.2858 273° West 143 165 7,900  Level Minneapolis Center
02:33PM 46.6800 -96.3483 273° West 146 168 7,900  Level Minneapolis Center
02:34PM 46.6825 -96.4108 273° West 148 170 7,900  Level Minneapolis Center
02:35PM 46.6844 -96.4719 273° West 146 168 7,900  Level Minneapolis Center
02:36PM 46.6872 -96.5353 274° West 149 171 8,000  Climbing Minneapolis Center
02:37PM 46.6894 -96.5939 273° West 150 173 7,900  Descending Minneapolis Center
02:38PM 46.6914 -96.6561 273° West 149 171 8,000  Climbing Minneapolis Center
02:39PM 46.6936 -96.7192 273° West 149 171 7,900  Descending Minneapolis Center
02:40PM 46.6956 -96.7819 273° West 147 169 8,000  Climbing Minneapolis Center
02:41PM 46.6981 -96.8444 273° West 150 173 7,900 -60 Descending Minneapolis Center
02:42PM 46.6997 -96.9022 272° West 149 171 7,900  Level Minneapolis Center
02:43PM 46.7019 -96.9647 273° West 147 169 8,000  Climbing Minneapolis Center
02:44PM 46.7036 -97.0267 272° West 147 169 8,000  Level Minneapolis Center
02:45PM 46.7058 -97.0867 273° West 141 162 8,000  Level Minneapolis Center
02:46PM 46.7081 -97.1481 273° West 146 168 8,000  Level Minneapolis Center
02:47PM 46.7094 -97.2097 272° West 144 166 8,000  Level Minneapolis Center
02:48PM 46.7114 -97.2672 273° West 146 168 8,000  Level Minneapolis Center
02:49PM 46.7125 -97.3281 272° West 144 166 8,000  Level Minneapolis Center
02:50PM 46.7147 -97.3897 273° West 148 170 8,000  Level Minneapolis Center
02:51PM 46.7164 -97.4489 272° West 141 162 8,000  Level Minneapolis Center
02:52PM 46.7183 -97.5092 273° West 142 163 8,000  Level Minneapolis Center
02:53PM 46.7200 -97.5714 272° West 146 168 8,000  Level Minneapolis Center
02:54PM 46.7214 -97.6344 272° West 149 171 8,000  Level Minneapolis Center
02:56PM 46.7233 -97.6917 273° West 148 170 8,000  Level Minneapolis Center
02:57PM 46.7250 -97.7542 272° West 148 170 8,000 -60 Level Minneapolis Center
02:58PM 46.7269 -97.8094 273° West 146 168 7,900 -60 Descending Minneapolis Center
02:59PM 46.7289 -97.8689 273° West 146 168 7,900  Level Minneapolis Center
03:00PM 46.7314 -97.9400 273° West 146 168 7,900  Level Minneapolis Center
03:01PM 46.7317 -97.9992 270° West 147 169 7,900  Level Minneapolis Center
03:02PM 46.7331 -98.0583 272° West 146 168 7,900  Level Minneapolis Center
03:03PM 46.7342 -98.1164 272° West 145 167 7,900  Level Minneapolis Center
03:04PM 46.7358 -98.1767 272° West 147 169 7,900  Level Minneapolis Center
03:05PM 46.7381 -98.2347 273° West 146 168 7,900  Level Minneapolis Center
03:06PM 46.7389 -98.3053 271° West 145 167 7,900  Level Minneapolis Center
03:07PM 46.7400 -98.3642 272° West 146 168 7,900  Level Minneapolis Center
03:08PM 46.7408 -98.4225 271° West 145 167 7,900  Level Minneapolis Center
03:09PM 46.7419 -98.4811 272° West 145 167 7,900  Level Minneapolis Center
03:10PM 46.7433 -98.5411 272° West 146 168 7,900  Level Minneapolis Center
03:11PM 46.7436 -98.6003 270° West 147 169 7,900  Level Minneapolis Center
03:12PM 46.7456 -98.6700 272° West 145 167 7,900  Level Minneapolis Center
03:13PM 46.7464 -98.7286 271° West 145 167 7,900  Level Minneapolis Center
03:14PM 46.7467 -98.7861 270° West 144 166 7,900  Level Minneapolis Center
03:15PM 46.7472 -98.8433 271° West 142 163 7,900  Level Minneapolis Center
03:16PM 46.7481 -98.9003 271° West 142 163 7,900  Level Minneapolis Center
03:17PM 46.7494 -98.9592 272° West 144 166 7,900  Level Minneapolis Center
03:18PM 46.7500 -99.0303 271° West 145 167 7,900  Level Minneapolis Center
03:19PM 46.7511 -99.0886 272° West 145 167 7,900  Level Minneapolis Center
03:20PM 46.7519 -99.1475 271° West 146 168 7,900  Level Minneapolis Center
03:21PM 46.7533 -99.2067 272° West 146 168 7,900  Level Minneapolis Center
03:22PM 46.7525 -99.2625 269° West 142 163 7,900  Level Minneapolis Center
03:23PM 46.7542 -99.3228 272° West 144 166 7,900  Level Minneapolis Center
03:24PM 46.7581 -99.3942 275° West 151 174 7,900  Level Minneapolis Center
03:26PM 46.7589 -99.4575 271° West 144 166 7,900  Level Minneapolis Center
03:27PM 46.7594 -99.5192 271° West 148 170 7,900  Level Minneapolis Center
03:28PM 46.7589 -99.5808 269° West 149 171 7,900  Level Minneapolis Center
03:29PM 46.7597 -99.6422 271° West 150 173 7,900  Level Minneapolis Center
03:30PM 46.7603 -99.7031 271° West 148 170 7,900  Level Minneapolis Center
03:31PM 46.7611 -99.7625 271° West 145 167 8,000  Climbing Minneapolis Center
03:32PM 46.7611 -99.8244 270° West 149 171 8,000  Level Minneapolis Center
03:33PM 46.7611 -99.8897 270° West 148 170 8,000  Level Minneapolis Center
03:34PM 46.7614 -99.9494 270° West 145 167 8,000  Level Minneapolis Center
03:35PM 46.7619 -100.0092 271° West 145 167 8,000  Level Minneapolis Center
03:36PM 46.7622 -100.0708 270° West 148 170 8,000  Level Minneapolis Center
03:37PM 46.7608 -100.1331 268° West 150 173 8,000  Level Minneapolis Center
03:38PM 46.7614 -100.1939 271° West 149 171 8,000  Level Minneapolis Center
03:39PM 46.7619 -100.2581 271° West 155 178 8,000  Level Minneapolis Center
03:40PM 46.7617 -100.3269 270° West 156 180 8,000  Level Minneapolis Center
03:41PM 46.7614 -100.3892 270° West 152 175 8,000  Level Minneapolis Center
03:42PM 46.7619 -100.4519 271° West 152 175 8,000  Level Minneapolis Center
03:43PM 46.7617 -100.5286 270° West 150 173 8,000  Level Minneapolis Center
03:44PM 46.7617 -100.5900 270° West 149 171 8,000  Level Minneapolis Center
03:45PM 46.7617 -100.6511 270° West 148 170 8,000  Level Minneapolis Center
03:46PM 46.7592 -100.7150 267° West 153 176 8,000  Level Minneapolis Center
03:47PM 46.7550 -100.7761 264° West 147 169 8,000  Level Minneapolis Center
03:48PM 46.7503 -100.8381 264° West 150 173 8,000  Level Minneapolis Center
03:50PM 46.7447 -100.9153 264° West 153 176 8,000  Level Minneapolis Center
03:51PM 46.7406 -100.9772 264° West 152 175 8,000  Level Minneapolis Center
03:52PM 46.7361 -101.0392 264° West 150 173 8,000  Level Minneapolis Center
03:53PM 46.7322 -101.1006 265° West 150 173 8,000  Level Minneapolis Center
03:54PM 46.7269 -101.1617 263° West 150 173 8,000  Level Minneapolis Center
03:55PM 46.7222 -101.2286 264° West 151 174 8,000  Level Minneapolis Center
03:56PM 46.7183 -101.2919 265° West 153 176 8,000  Level Minneapolis Center
03:57PM 46.7136 -101.3547 264° West 153 176 8,000  Level Minneapolis Center
03:58PM 46.7081 -101.4181 263° West 155 178 8,000  Level Minneapolis Center
03:59PM 46.7019 -101.4864 263° West 155 178 8,000  Level Minneapolis Center
04:00PM 46.6989 -101.5481 266° West 152 175 8,000  Level Minneapolis Center
04:01PM 46.6944 -101.6103 264° West 151 174 8,000  Level Minneapolis Center
04:02PM 46.6883 -101.6783 263° West 154 177 8,000  Level Minneapolis Center
04:03PM 46.6844 -101.7408 265° West 154 177 8,000  Level Minneapolis Center
04:04PM 46.6789 -101.8028 263° West 152 175 8,000  Level Minneapolis Center
04:05PM 46.6742 -101.8639 264° West 151 174 8,000  Level Minneapolis Center
04:06PM 46.6689 -101.9256 263° West 151 174 8,000  Level Minneapolis Center
04:07PM 46.6647 -101.9869 264° West 149 171 8,000  Level Minneapolis Center
04:08PM 46.6597 -102.0458 263° West 145 167 8,000  Level Minneapolis Center
04:10PM 46.6631 -102.1392 273° West 140 161 8,000  Level Minneapolis Center
04:11PM 46.6556 -102.1981 260° West 146 168 8,000  Level Minneapolis Center
04:12PM 46.6517 -102.2564 264° West 146 168 8,000  Level Minneapolis Center
04:13PM 46.6461 -102.3139 262° West 146 168 8,000  Level Minneapolis Center
04:14PM 46.6417 -102.3817 265° West 144 166 8,000  Level Minneapolis Center
04:15PM 46.6372 -102.4389 264° West 143 165 8,000  Level Minneapolis Center
04:16PM 46.6317 -102.4956 262° West 142 163 8,000  Level Minneapolis Center
04:17PM 46.6278 -102.5536 264° West 143 165 8,000  Level Minneapolis Center
04:18PM 46.6219 -102.6108 262° West 143 165 8,000  Level Minneapolis Center
04:19PM 46.6178 -102.6706 264° West 145 167 8,000  Level Minneapolis Center
04:20PM 46.6119 -102.7417 263° West 147 169 8,000  Level Minneapolis Center
04:21PM 46.6069 -102.7992 263° West 146 168 8,000  Level Minneapolis Center
04:22PM 46.6025 -102.8567 264° West 145 167 8,000  Level Minneapolis Center
04:23PM 46.5969 -102.9144 262° West 145 167 8,000 -60 Level Minneapolis Center
04:24PM 46.5919 -102.9728 263° West 145 167 7,900 -60 Descending Minneapolis Center
04:25PM 46.5872 -103.0322 263° West 146 168 7,900  Level Minneapolis Center
04:26PM 46.5817 -103.1022 263° West 146 168 7,900  Level Minneapolis Center
04:28PM 46.5758 -103.1581 261° West 144 166 7,900  Level Minneapolis Center
04:29PM 46.5714 -103.2150 264° West 143 165 7,900  Level Minneapolis Center
04:30PM 46.5661 -103.2731 262° West 143 165 7,900  Level Minneapolis Center
04:31PM 46.5608 -103.3303 262° West 144 166 7,900  Level Minneapolis Center
04:32PM 46.5558 -103.3864 263° West 143 165 7,900  Level Minneapolis Center
04:33PM 46.5497 -103.4556 263° West 143 165 7,900  Level Minneapolis Center
04:34PM 46.5442 -103.5144 262° West 144 166 7,900  Level Minneapolis Center
04:35PM 46.5383 -103.5714 262° West 145 167 7,900  Level Minneapolis Center
04:36PM 46.5339 -103.6286 264° West 143 165 7,900  Level Minneapolis Center
04:37PM 46.5289 -103.6856 263° West 143 165 7,900  Level Minneapolis Center
04:38PM 46.5233 -103.7417 262° West 142 163 7,900  Level Minneapolis Center
04:39PM 46.5175 -103.8089 263° West 141 162 7,900  Level Minneapolis Center
04:40PM 46.5117 -103.8664 262° West 142 163 7,900  Level Minneapolis Center
04:41PM 46.5061 -103.9242 262° West 143 165 7,900  Level Minneapolis Center
04:42PM 46.4964 -104.0106 261° West 147 169 7,900  Level Salt Lake Center
04:43PM 46.4914 -104.0669 263° West 146 168 7,900  Level Salt Lake Center
04:44PM 46.4856 -104.1250 262° West 145 167 7,900  Level Salt Lake Center
04:45PM 46.4800 -104.1819 262° West 145 167 7,900  Level Salt Lake Center
04:46PM 46.4744 -104.2406 262° West 145 167 7,900  Level Salt Lake Center
04:47PM 46.4689 -104.2997 262° West 146 168 7,900  Level Salt Lake Center
04:48PM 46.4617 -104.3697 262° West 147 169 7,900  Level Salt Lake Center
04:50PM 46.4561 -104.4297 262° West 147 169 7,900  Level Salt Lake Center
04:51PM 46.4508 -104.4881 263° West 148 170 7,900  Level Salt Lake Center
04:52PM 46.4439 -104.5453 260° West 147 169 7,900  Level Salt Lake Center
04:53PM 46.4386 -104.6039 263° West 146 168 7,900  Level Salt Lake Center
04:54PM 46.4328 -104.6644 262° West 148 170 7,900  Level Salt Lake Center
04:55PM 46.4264 -104.7250 261° West 150 173 7,900  Level Salt Lake Center
04:56PM 46.4197 -104.7942 262° West 149 171 7,900  Level Salt Lake Center
04:57PM 46.4139 -104.8506 261° West 146 168 7,900  Level Salt Lake Center
04:58PM 46.4075 -104.9072 261° West 144 166 7,900  Level Salt Lake Center
04:59PM 46.4006 -104.9644 260° West 145 167 7,900  Level Salt Lake Center
05:00PM 46.3956 -105.0225 263° West 145 167 7,900  Level Salt Lake Center
05:01PM 46.3906 -105.0769 262° West 140 161 7,900  Level Salt Lake Center
05:02PM 46.3839 -105.1328 260° West 141 162 7,900  Level Salt Lake Center
05:03PM 46.3767 -105.2006 261° West 142 163 7,900  Level Salt Lake Center
05:04PM 46.3703 -105.2575 261° West 144 166 7,900  Level Salt Lake Center
05:05PM 46.3647 -105.3150 262° West 144 166 7,900  Level Salt Lake Center
05:06PM 46.3578 -105.3739 260° West 145 167 7,900  Level Salt Lake Center
05:07PM 46.3519 -105.4275 261° West 145 167 7,900  Level Salt Lake Center
05:09PM 46.3486 -105.5120 267° West  Level FlightAware Approximate
05:16PM 46.3321 -105.9107 267° West  Level FlightAware Approximate
05:17PM 46.3296 -105.9677 266° West  Level FlightAware Approximate
05:18PM 46.3271 -106.0246 266° West  Level FlightAware Approximate
05:19PM 46.3246 -106.0815 266° West  Level FlightAware Approximate
05:20PM 46.3220 -106.1385 266° West  Level FlightAware Approximate
05:21PM 46.3195 -106.1954 266° West  Level FlightAware Approximate
05:22PM 46.3168 -106.2523 266° West  Level FlightAware Approximate
05:22PM 46.2461 -106.3286 266° West 151 174 8,000  Level Salt Lake Center
05:23PM 46.3142 -106.3092 266° West  Level FlightAware Approximate
05:23PM 46.2422 -106.3867 264° West 138 159 7,900  Level Salt Lake Center
05:24PM 46.3115 -106.3661 266° West  Level FlightAware Approximate
05:25PM 46.3088 -106.4230 266° West  Level FlightAware Approximate
05:25PM 46.2392 -106.4497 266° West 140 161 7,900  Level Salt Lake Center
05:26PM 46.3061 -106.4799 266° West  Level FlightAware Approximate
05:27PM 46.3033 -106.5368 266° West  Level FlightAware Approximate
05:27PM 46.2257 -106.5603 260° West  Level FlightAware Approximate
05:28PM 46.3006 -106.5936 266° West  Level FlightAware Approximate
05:34PM 46.1976 -106.9548 265° West  Level FlightAware Approximate
05:34PM 46.1736 -107.0167 265° West 167 192 8,000  Level Salt Lake Center
05:35PM 46.1942 -107.0111 265° West  Level FlightAware Approximate
05:35PM 46.1672 -107.0700 260° West 140 161 8,000  Level Salt Lake Center
05:36PM 46.1908 -107.0675 265° West  Level FlightAware Approximate
05:36PM 46.1606 -107.1261 260° West 140 161 8,000  Level Salt Lake Center
05:37PM 46.1873 -107.1238 265° West  Level FlightAware Approximate
05:38PM 46.1838 -107.1802 265° West  Level FlightAware Approximate
05:38PM 46.1517 -107.1967 260° West 146 168 8,000  Level Salt Lake Center
05:39PM 46.1802 -107.2365 265° West  Level FlightAware Approximate
05:39PM 46.1447 -107.2536 260° West 146 168 8,000  Level Salt Lake Center
05:40PM 46.1766 -107.2928 265° West  Level FlightAware Approximate
05:40PM 46.1378 -107.3097 260° West 143 165 8,000  Level Salt Lake Center
05:41PM 46.1308 -107.3669 260° West 145 167 8,000  Level Salt Lake Center
05:42PM 46.1236 -107.4206 259° West 138 159 8,000  Level Salt Lake Center
05:43PM 46.1172 -107.4772 261° West 142 163 8,000  Level Salt Lake Center
05:44PM 46.1078 -107.5453 259° West 144 166 8,000  Level Salt Lake Center
05:45PM 46.1006 -107.6011 259° West 145 167 8,000  Level Salt Lake Center
05:46PM 46.0922 -107.6633 259° West 147 169 8,000  Level Salt Lake Center
05:47PM 46.0856 -107.7203 260° West 146 168 8,000  Level Salt Lake Center
05:48PM 46.0778 -107.7817 260° West 146 168 8,000  Level Salt Lake Center
05:49PM 46.0706 -107.8381 260° West 144 166 8,000  Level Salt Lake Center
05:50PM 46.0622 -107.8994 259° West 146 168 8,000  Level Salt Lake Center
05:51PM 46.0553 -107.9550 260° West 144 166 8,000  Level Salt Lake Center
05:52PM 46.0472 -108.0158 259° West 145 167 8,000  Level Salt Lake Center
05:53PM 46.0394 -108.0747 259° West 151 174 8,000  Level Salt Lake Center
05:54PM 46.0311 -108.1378 259° West 150 173 8,000  Level Salt Lake Center
05:55PM 46.0236 -108.1933 259° West 145 167 8,000  Level Salt Lake Center
05:56PM 46.0158 -108.2544 260° West 144 166 8,000  Level Salt Lake Center
05:57PM 46.0081 -108.3106 259° West 144 166 8,000  Level Salt Lake Center
05:58PM 46.0006 -108.3708 260° West 144 166 8,000  Level Salt Lake Center
05:59PM 45.9922 -108.4267 258° West 145 167 8,000  Level Salt Lake Center
06:00PM 45.9847 -108.4872 260° West 145 167 8,000  Level Salt Lake Center
06:01PM 45.9775 -108.5442 260° West 147 169 8,000  Level Salt Lake Center
06:02PM 45.9686 -108.6058 258° West 146 168 8,000  Level Salt Lake Center
06:03PM 45.9611 -108.6614 259° West 145 167 8,000  Level Salt Lake Center
06:04PM 45.9533 -108.7194 259° West 139 160 8,000  Level Salt Lake Center
06:05PM 45.9461 -108.7733 259° West 140 161 8,000  Level Salt Lake Center
06:06PM 45.9375 -108.8308 258° West 139 160 8,000  Level Salt Lake Center
06:07PM 45.9306 -108.8856 260° West 139 160 8,000 60 Level Salt Lake Center
06:08PM 45.9225 -108.9439 259° West 139 160 8,200 360 Climbing Salt Lake Center
06:09PM 45.9156 -108.9903 258° West 124 143 8,800 540 Climbing Salt Lake Center
06:11PM 45.9089 -109.0397 259° West 118 136 9,400 540 Climbing Salt Lake Center
06:12PM 45.9069 -109.0836 266° West 114 131 10,000 240 Climbing Salt Lake Center
06:13PM 45.9036 -109.1389 265° West 129 148 10,000  Level Salt Lake Center
06:14PM 45.9008 -109.1936 266° West 138 159 10,000  Level Salt Lake Center
06:15PM 45.8975 -109.2567 266° West 147 169 10,000  Level Salt Lake Center
06:16PM 45.8942 -109.3147 265° West 147 169 10,000  Level Salt Lake Center
06:17PM 45.8908 -109.3758 266° West 144 166 10,000  Level Salt Lake Center
06:18PM 45.8878 -109.4314 266° West 142 163 10,000  Level Salt Lake Center
06:19PM 45.8828 -109.4925 263° West 144 166 10,000  Level Salt Lake Center
06:20PM 45.8683 -109.5461 249° West 144 166 10,000  Level Salt Lake Center
06:21PM 45.8536 -109.6069 251° West 151 174 10,000  Level Salt Lake Center
06:22PM 45.8508 -109.6667 266° West 152 175 10,000  Level Salt Lake Center
06:23PM 45.8492 -109.7286 268° West 145 167 10,000  Level Salt Lake Center
06:24PM 45.8469 -109.7878 267° West 149 171 10,000  Level Salt Lake Center
06:25PM 45.8436 -109.8436 265° West 146 168 10,000  Level Salt Lake Center